Tropical Cyclones
[Index]
Main Index Home Page Stock Weather Photos Extreme Storms Discussion Storm News and Storm Chasing Reports Tropical Cyclones / Hurricanes / Typhoons Weather Data and Links Wild Fires / Bushfires Weather Observation Techniques Weather Picture Catalogue Tornado Pictures and Reports Stock Video Footage and DVDs for sale
Season 1993-1994 Tropical Cyclone EDEMA Track Map
Season 1993-1994 Summaries: [BoM-AU] [JTWC-AU] [JTWC-SIO] [JTWC-SPAC] [JTWC-SH]
<<- Previous TC | JTWC 1993-1994 Season | Next TC ->>

click for intensity scale information  Lat/long Grid: Show Hide

 Date Labels: Show Hide

Joint Typhoon Warning Centre Cyclone Data

Name: EDEMA

11 Jan 1994 12:00 UTC to 19 Jan 1994 06:00 UTC

    date/time    lat    long     hPa   cat  kts
1994-01-11 12    9.4    74.6                  20          
1994-01-11 18    9.6    74.0                  20          
1994-01-12 00    9.8    73.5                  20          
1994-01-12 06   10.1    73.1                  20          
1994-01-12 12   10.4    72.8                  20          
1994-01-12 18   10.8    72.5                  20          
1994-01-13 00   11.3    72.5                  25          
1994-01-13 06   11.8    72.3                  25          
1994-01-13 12   12.1    71.6                  25          
1994-01-13 18   12.4    71.0                  30          
1994-01-14 00   12.5    70.3                  35          
1994-01-14 06   12.6    69.4            1     40          
1994-01-14 12   13.0    68.6            1     45          
1994-01-14 18   13.5    68.3            1     50          
1994-01-15 00   14.2    68.0            1     50          
1994-01-15 06   14.9    67.5            1     45          
1994-01-15 12   15.7    67.0            1     45          
1994-01-15 18   16.6    66.8            1     50          
1994-01-16 00   17.6    66.8            1     50          
1994-01-16 06   18.6    66.8            1     45          
1994-01-16 12   19.7    66.3            1     45          
1994-01-16 18   20.7    65.1            1     45          
1994-01-17 00   21.6    64.7            1     45          
1994-01-17 06   22.7    64.4            1     40          
1994-01-17 12   23.5    64.3            1     40          
1994-01-17 18   24.2    64.3                  35          
1994-01-18 00   25.4    64.5                  35          
1994-01-18 06   26.8    65.1                  35          
1994-01-18 12   27.9    66.2                  35          
1994-01-18 18   28.7    68.0                  30          
1994-01-19 00   29.6    71.0                  30          
1994-01-19 06   30.3    74.1                  25          
Winds are 1-min average.

Tropical cyclone tracks developed by Michael Bath using data from the Joint Typhoon Warning Centre Best Tracks and Google Maps.


[Australian Severe Weather index] [Copyright Notice] [Email Contacts] [Search This Site] [Privacy Policy]
Document: tropical_cyclone_edema.htm Updated: 18 September 2016